sensor_id;sensor_type;location;lat;lon;timestamp;pressure;altitude;pressure_sealevel;temperature;humidity
54872;BME280;43914;57.680;11.982;2023-04-24T00:00:03;99417.29;;;7.30;100.00
54872;BME280;43914;57.680;11.982;2023-04-24T00:02:34;99412.55;;;7.31;100.00
54872;BME280;43914;57.680;11.982;2023-04-24T00:04:59;99410.27;;;7.32;100.00
54872;BME280;43914;57.680;11.982;2023-04-24T00:07:29;99411.44;;;7.33;100.00
54872;BME280;43914;57.680;11.982;2023-04-24T00:09:54;99408.64;;;7.34;100.00
54872;BME280;43914;57.680;11.982;2023-04-24T00:12:20;99407.61;;;7.33;100.00
54872;BME280;43914;57.680;11.982;2023-04-24T00:14:45;99410.52;;;7.33;100.00
54872;BME280;43914;57.680;11.982;2023-04-24T00:17:11;99404.72;;;7.32;100.00
54872;BME280;43914;57.680;11.982;2023-04-24T00:19:36;99405.20;;;7.31;100.00
54872;BME280;43914;57.680;11.982;2023-04-24T00:22:02;99401.85;;;7.28;100.00
54872;BME280;43914;57.680;11.982;2023-04-24T00:24:28;99399.46;;;7.28;100.00
54872;BME280;43914;57.680;11.982;2023-04-24T00:26:53;99400.85;;;7.25;100.00
54872;BME280;43914;57.680;11.982;2023-04-24T00:29:18;99404.92;;;7.24;100.00
54872;BME280;43914;57.680;11.982;2023-04-24T00:31:44;99406.92;;;7.20;100.00
54872;BME280;43914;57.680;11.982;2023-04-24T00:34:09;99401.20;;;7.15;100.00
54872;BME280;43914;57.680;11.982;2023-04-24T00:36:37;99398.80;;;7.13;100.00
54872;BME280;43914;57.680;11.982;2023-04-24T00:39:02;99393.12;;;7.11;100.00
54872;BME280;43914;57.680;11.982;2023-04-24T00:41:28;99391.64;;;7.12;100.00
54872;BME280;43914;57.680;11.982;2023-04-24T00:43:54;99391.25;;;7.09;100.00
54872;BME280;43914;57.680;11.982;2023-04-24T00:46:20;99387.98;;;7.05;100.00
54872;BME280;43914;57.680;11.982;2023-04-24T00:48:46;99391.83;;;7.03;100.00
54872;BME280;43914;57.680;11.982;2023-04-24T00:51:12;99394.57;;;7.01;100.00
54872;BME280;43914;57.680;11.982;2023-04-24T00:53:37;99395.25;;;7.00;100.00
54872;BME280;43914;57.680;11.982;2023-04-24T00:56:04;99399.60;;;6.98;100.00
54872;BME280;43914;57.680;11.982;2023-04-24T00:58:30;99396.09;;;6.96;100.00
54872;BME280;43914;57.680;11.982;2023-04-24T01:00:57;99393.30;;;6.96;100.00
54872;BME280;43914;57.680;11.982;2023-04-24T01:03:29;99397.33;;;6.96;100.00
54872;BME280;43914;57.680;11.982;2023-04-24T01:05:55;99394.94;;;6.97;100.00
54872;BME280;43914;57.680;11.982;2023-04-24T01:08:24;99393.15;;;6.98;100.00
54872;BME280;43914;57.680;11.982;2023-04-24T01:10:53;99388.05;;;6.99;100.00
54872;BME280;43914;57.680;11.982;2023-04-24T01:13:19;99390.83;;;7.01;100.00
54872;BME280;43914;57.680;11.982;2023-04-24T01:15:46;99392.08;;;7.02;100.00
54872;BME280;43914;57.680;11.982;2023-04-24T01:18:13;99392.98;;;7.04;100.00
54872;BME280;43914;57.680;11.982;2023-04-24T01:20:42;99390.95;;;7.06;100.00
54872;BME280;43914;57.680;11.982;2023-04-24T01:23:09;99390.80;;;7.07;100.00
54872;BME280;43914;57.680;11.982;2023-04-24T01:25:36;99395.55;;;7.07;100.00
54872;BME280;43914;57.680;11.982;2023-04-24T01:28:02;99393.88;;;7.08;100.00
54872;BME280;43914;57.680;11.982;2023-04-24T01:30:28;99390.27;;;7.10;100.00
54872;BME280;43914;57.680;11.982;2023-04-24T01:32:55;99390.00;;;7.11;100.00
54872;BME280;43914;57.680;11.982;2023-04-24T01:35:21;99389.14;;;7.12;100.00
54872;BME280;43914;57.680;11.982;2023-04-24T01:37:46;99387.46;;;7.12;100.00
54872;BME280;43914;57.680;11.982;2023-04-24T01:40:12;99384.33;;;7.13;100.00
54872;BME280;43914;57.680;11.982;2023-04-24T01:42:37;99380.67;;;7.14;100.00
54872;BME280;43914;57.680;11.982;2023-04-24T01:45:04;99380.89;;;7.14;100.00
54872;BME280;43914;57.680;11.982;2023-04-24T01:47:31;99380.14;;;7.14;100.00
54872;BME280;43914;57.680;11.982;2023-04-24T01:49:57;99374.71;;;7.13;100.00
54872;BME280;43914;57.680;11.982;2023-04-24T01:52:24;99373.08;;;7.13;100.00
54872;BME280;43914;57.680;11.982;2023-04-24T01:54:50;99370.65;;;7.12;100.00
54872;BME280;43914;57.680;11.982;2023-04-24T01:57:16;99365.45;;;7.12;100.00
54872;BME280;43914;57.680;11.982;2023-04-24T01:59:42;99359.73;;;7.11;100.00
54872;BME280;43914;57.680;11.982;2023-04-24T02:02:08;99359.48;;;7.10;100.00
54872;BME280;43914;57.680;11.982;2023-04-24T02:04:33;99359.90;;;7.09;100.00
54872;BME280;43914;57.680;11.982;2023-04-24T02:06:58;99364.45;;;7.09;100.00
54872;BME280;43914;57.680;11.982;2023-04-24T02:09:24;99366.82;;;7.05;100.00
54872;BME280;43914;57.680;11.982;2023-04-24T02:11:50;99365.30;;;7.03;100.00
54872;BME280;43914;57.680;11.982;2023-04-24T02:14:15;99364.89;;;7.04;100.00
54872;BME280;43914;57.680;11.982;2023-04-24T02:16:41;99357.12;;;7.04;100.00
54872;BME280;43914;57.680;11.982;2023-04-24T02:19:06;99354.70;;;7.07;100.00
54872;BME280;43914;57.680;11.982;2023-04-24T02:21:32;99346.78;;;7.07;100.00
54872;BME280;43914;57.680;11.982;2023-04-24T02:23:58;99343.63;;;7.08;100.00
54872;BME280;43914;57.680;11.982;2023-04-24T02:26:24;99341.32;;;7.10;100.00
54872;BME280;43914;57.680;11.982;2023-04-24T02:28:50;99337.02;;;7.11;100.00
54872;BME280;43914;57.680;11.982;2023-04-24T02:31:15;99335.67;;;7.12;100.00
54872;BME280;43914;57.680;11.982;2023-04-24T02:33:41;99337.55;;;7.13;100.00
54872;BME280;43914;57.680;11.982;2023-04-24T02:36:06;99344.71;;;7.14;100.00
54872;BME280;43914;57.680;11.982;2023-04-24T02:38:33;99350.80;;;7.15;100.00
54872;BME280;43914;57.680;11.982;2023-04-24T02:40:58;99351.92;;;7.16;100.00
54872;BME280;43914;57.680;11.982;2023-04-24T02:43:24;99347.13;;;7.18;100.00
54872;BME280;43914;57.680;11.982;2023-04-24T02:45:49;99338.63;;;7.21;100.00
54872;BME280;43914;57.680;11.982;2023-04-24T02:48:15;99332.39;;;7.22;100.00
54872;BME280;43914;57.680;11.982;2023-04-24T02:50:40;99324.41;;;7.22;100.00
54872;BME280;43914;57.680;11.982;2023-04-24T02:53:06;99325.27;;;7.22;100.00
54872;BME280;43914;57.680;11.982;2023-04-24T02:55:32;99324.86;;;7.21;100.00
54872;BME280;43914;57.680;11.982;2023-04-24T02:57:57;99321.79;;;7.22;100.00
54872;BME280;43914;57.680;11.982;2023-04-24T03:00:23;99322.48;;;7.22;100.00
54872;BME280;43914;57.680;11.982;2023-04-24T03:02:48;99321.79;;;7.22;100.00
54872;BME280;43914;57.680;11.982;2023-04-24T03:05:15;99318.33;;;7.21;100.00
54872;BME280;43914;57.680;11.982;2023-04-24T03:07:41;99316.06;;;7.20;100.00
54872;BME280;43914;57.680;11.982;2023-04-24T03:10:07;99312.64;;;7.19;100.00
54872;BME280;43914;57.680;11.982;2023-04-24T03:12:32;99312.42;;;7.17;100.00
54872;BME280;43914;57.680;11.982;2023-04-24T03:14:58;99315.61;;;7.16;100.00
54872;BME280;43914;57.680;11.982;2023-04-24T03:17:23;99311.17;;;7.14;100.00
54872;BME280;43914;57.680;11.982;2023-04-24T03:19:49;99311.91;;;7.13;100.00
54872;BME280;43914;57.680;11.982;2023-04-24T03:22:14;99313.34;;;7.13;100.00
54872;BME280;43914;57.680;11.982;2023-04-24T03:24:39;99313.42;;;7.12;100.00
54872;BME280;43914;57.680;11.982;2023-04-24T03:27:05;99308.60;;;7.09;100.00
54872;BME280;43914;57.680;11.982;2023-04-24T03:29:31;99308.41;;;7.11;100.00
54872;BME280;43914;57.680;11.982;2023-04-24T03:31:56;99304.64;;;7.11;100.00
54872;BME280;43914;57.680;11.982;2023-04-24T03:34:21;99302.56;;;7.09;100.00
54872;BME280;43914;57.680;11.982;2023-04-24T03:36:47;99297.50;;;7.08;100.00
54872;BME280;43914;57.680;11.982;2023-04-24T03:39:13;99298.37;;;7.08;100.00
54872;BME280;43914;57.680;11.982;2023-04-24T03:41:38;99291.16;;;7.06;100.00
54872;BME280;43914;57.680;11.982;2023-04-24T03:44:04;99288.91;;;7.07;100.00
54872;BME280;43914;57.680;11.982;2023-04-24T03:46:29;99285.63;;;7.08;100.00
54872;BME280;43914;57.680;11.982;2023-04-24T03:48:55;99284.02;;;7.08;100.00
54872;BME280;43914;57.680;11.982;2023-04-24T03:51:20;99288.88;;;7.07;100.00
54872;BME280;43914;57.680;11.982;2023-04-24T03:53:47;99286.66;;;7.10;100.00
54872;BME280;43914;57.680;11.982;2023-04-24T03:56:12;99288.60;;;7.11;100.00
54872;BME280;43914;57.680;11.982;2023-04-24T03:58:38;99284.73;;;7.12;100.00
54872;BME280;43914;57.680;11.982;2023-04-24T04:01:03;99284.77;;;7.17;100.00
54872;BME280;43914;57.680;11.982;2023-04-24T04:03:28;99283.91;;;7.23;100.00
54872;BME280;43914;57.680;11.982;2023-04-24T04:05:54;99279.58;;;7.27;100.00
54872;BME280;43914;57.680;11.982;2023-04-24T04:08:20;99283.20;;;7.30;100.00
54872;BME280;43914;57.680;11.982;2023-04-24T04:10:45;99285.39;;;7.31;100.00
54872;BME280;43914;57.680;11.982;2023-04-24T04:13:11;99283.73;;;7.34;100.00
54872;BME280;43914;57.680;11.982;2023-04-24T04:15:36;99284.08;;;7.37;100.00
54872;BME280;43914;57.680;11.982;2023-04-24T04:18:02;99282.80;;;7.40;100.00
54872;BME280;43914;57.680;11.982;2023-04-24T04:20:27;99282.11;;;7.44;100.00
54872;BME280;43914;57.680;11.982;2023-04-24T04:22:53;99284.72;;;7.47;100.00
54872;BME280;43914;57.680;11.982;2023-04-24T04:25:18;99282.84;;;7.49;100.00
54872;BME280;43914;57.680;11.982;2023-04-24T04:27:45;99274.09;;;7.50;100.00
54872;BME280;43914;57.680;11.982;2023-04-24T04:30:13;99263.27;;;7.53;100.00
54872;BME280;43914;57.680;11.982;2023-04-24T04:32:39;99261.64;;;7.56;100.00
54872;BME280;43914;57.680;11.982;2023-04-24T04:35:05;99265.88;;;7.58;100.00
54872;BME280;43914;57.680;11.982;2023-04-24T04:37:33;99272.98;;;7.59;100.00
54872;BME280;43914;57.680;11.982;2023-04-24T04:39:59;99271.48;;;7.60;100.00
54872;BME280;43914;57.680;11.982;2023-04-24T04:42:26;99272.92;;;7.62;100.00
54872;BME280;43914;57.680;11.982;2023-04-24T04:44:52;99275.67;;;7.63;100.00
54872;BME280;43914;57.680;11.982;2023-04-24T04:47:20;99277.73;;;7.64;100.00
54872;BME280;43914;57.680;11.982;2023-04-24T04:49:50;99276.69;;;7.65;100.00
54872;BME280;43914;57.680;11.982;2023-04-24T04:52:19;99266.27;;;7.63;100.00
54872;BME280;43914;57.680;11.982;2023-04-24T04:54:44;99272.13;;;7.69;100.00
54872;BME280;43914;57.680;11.982;2023-04-24T04:57:11;99273.40;;;7.70;100.00
54872;BME280;43914;57.680;11.982;2023-04-24T04:59:37;99274.59;;;7.72;100.00
54872;BME280;43914;57.680;11.982;2023-04-24T05:02:02;99271.27;;;7.72;100.00
54872;BME280;43914;57.680;11.982;2023-04-24T05:04:28;99272.91;;;7.74;100.00
54872;BME280;43914;57.680;11.982;2023-04-24T05:06:53;99275.45;;;7.74;100.00
54872;BME280;43914;57.680;11.982;2023-04-24T05:09:19;99276.04;;;7.74;100.00
54872;BME280;43914;57.680;11.982;2023-04-24T05:11:44;99274.86;;;7.73;100.00
54872;BME280;43914;57.680;11.982;2023-04-24T05:14:10;99273.61;;;7.75;100.00
54872;BME280;43914;57.680;11.982;2023-04-24T05:16:38;99267.23;;;7.76;100.00
54872;BME280;43914;57.680;11.982;2023-04-24T05:19:03;99272.47;;;7.79;100.00
54872;BME280;43914;57.680;11.982;2023-04-24T05:21:29;99271.25;;;7.82;100.00
54872;BME280;43914;57.680;11.982;2023-04-24T05:23:54;99267.50;;;7.84;100.00
54872;BME280;43914;57.680;11.982;2023-04-24T05:26:20;99262.89;;;7.86;100.00
54872;BME280;43914;57.680;11.982;2023-04-24T05:28:45;99263.39;;;7.89;100.00
54872;BME280;43914;57.680;11.982;2023-04-24T05:31:11;99267.27;;;7.92;100.00
54872;BME280;43914;57.680;11.982;2023-04-24T05:33:37;99270.27;;;7.95;100.00
54872;BME280;43914;57.680;11.982;2023-04-24T05:36:03;99271.59;;;7.99;100.00
54872;BME280;43914;57.680;11.982;2023-04-24T05:38:30;99267.94;;;8.01;100.00
54872;BME280;43914;57.680;11.982;2023-04-24T05:40:56;99270.17;;;8.03;100.00
54872;BME280;43914;57.680;11.982;2023-04-24T05:43:21;99269.15;;;8.06;100.00
54872;BME280;43914;57.680;11.982;2023-04-24T05:45:47;99266.83;;;8.07;100.00
54872;BME280;43914;57.680;11.982;2023-04-24T05:48:12;99262.43;;;8.08;100.00
54872;BME280;43914;57.680;11.982;2023-04-24T05:50:38;99264.94;;;8.10;100.00
54872;BME280;43914;57.680;11.982;2023-04-24T05:53:03;99263.41;;;8.12;100.00
54872;BME280;43914;57.680;11.982;2023-04-24T05:55:30;99256.96;;;8.15;100.00
54872;BME280;43914;57.680;11.982;2023-04-24T05:57:56;99258.44;;;8.17;100.00
54872;BME280;43914;57.680;11.982;2023-04-24T06:00:21;99261.65;;;8.20;100.00
54872;BME280;43914;57.680;11.982;2023-04-24T06:02:47;99255.44;;;8.18;100.00
54872;BME280;43914;57.680;11.982;2023-04-24T06:05:12;99268.45;;;8.24;100.00
54872;BME280;43914;57.680;11.982;2023-04-24T06:07:38;99263.55;;;8.24;100.00
54872;BME280;43914;57.680;11.982;2023-04-24T06:10:04;99264.33;;;8.27;100.00
54872;BME280;43914;57.680;11.982;2023-04-24T06:12:30;99254.09;;;8.25;100.00
54872;BME280;43914;57.680;11.982;2023-04-24T06:14:56;99262.30;;;8.30;100.00
54872;BME280;43914;57.680;11.982;2023-04-24T06:17:21;99255.36;;;8.31;100.00
54872;BME280;43914;57.680;11.982;2023-04-24T06:19:47;99256.77;;;8.32;100.00
54872;BME280;43914;57.680;11.982;2023-04-24T06:22:12;99251.94;;;8.34;100.00
54872;BME280;43914;57.680;11.982;2023-04-24T06:24:39;99252.39;;;8.36;100.00
54872;BME280;43914;57.680;11.982;2023-04-24T06:27:05;99250.57;;;8.39;100.00
54872;BME280;43914;57.680;11.982;2023-04-24T06:29:31;99248.64;;;8.42;100.00
54872;BME280;43914;57.680;11.982;2023-04-24T06:31:58;99244.02;;;8.44;99.87
54872;BME280;43914;57.680;11.982;2023-04-24T06:34:23;99247.73;;;8.47;100.00
54872;BME280;43914;57.680;11.982;2023-04-24T06:36:49;99243.38;;;8.51;99.68
54872;BME280;43914;57.680;11.982;2023-04-24T06:39:15;99246.73;;;8.57;99.43
54872;BME280;43914;57.680;11.982;2023-04-24T06:41:40;99251.98;;;8.63;99.41
54872;BME280;43914;57.680;11.982;2023-04-24T06:44:06;99250.48;;;8.70;99.42
54872;BME280;43914;57.680;11.982;2023-04-24T06:46:31;99248.26;;;8.78;98.49
54872;BME280;43914;57.680;11.982;2023-04-24T06:48:57;99247.28;;;8.85;97.95
54872;BME280;43914;57.680;11.982;2023-04-24T06:51:26;99249.45;;;8.96;97.83
54872;BME280;43914;57.680;11.982;2023-04-24T06:53:53;99250.11;;;9.04;97.44
54872;BME280;43914;57.680;11.982;2023-04-24T06:56:20;99255.68;;;9.14;96.94
54872;BME280;43914;57.680;11.982;2023-04-24T06:58:46;99256.27;;;9.21;96.24
54872;BME280;43914;57.680;11.982;2023-04-24T07:01:11;99256.89;;;9.26;95.44
54872;BME280;43914;57.680;11.982;2023-04-24T07:03:37;99260.92;;;9.27;94.81
54872;BME280;43914;57.680;11.982;2023-04-24T07:06:03;99270.69;;;9.30;93.92
54872;BME280;43914;57.680;11.982;2023-04-24T07:08:29;99276.14;;;9.28;93.70
54872;BME280;43914;57.680;11.982;2023-04-24T07:10:59;99278.87;;;9.25;93.29
54872;BME280;43914;57.680;11.982;2023-04-24T07:13:24;99275.05;;;9.21;93.92
54872;BME280;43914;57.680;11.982;2023-04-24T07:15:51;99276.54;;;9.18;94.30
54872;BME280;43914;57.680;11.982;2023-04-24T07:18:19;99274.39;;;9.17;94.76
54872;BME280;43914;57.680;11.982;2023-04-24T07:20:44;99272.99;;;9.15;94.59
54872;BME280;43914;57.680;11.982;2023-04-24T07:23:10;99273.09;;;9.13;94.90
54872;BME280;43914;57.680;11.982;2023-04-24T07:25:35;99272.15;;;9.08;94.64
54872;BME280;43914;57.680;11.982;2023-04-24T07:28:01;99274.15;;;9.06;94.95
54872;BME280;43914;57.680;11.982;2023-04-24T07:30:26;99275.19;;;8.99;95.41
54872;BME280;43914;57.680;11.982;2023-04-24T07:32:54;99278.06;;;8.94;96.23
54872;BME280;43914;57.680;11.982;2023-04-24T07:35:20;99277.08;;;8.89;96.65
54872;BME280;43914;57.680;11.982;2023-04-24T07:37:46;99280.41;;;8.83;97.01
54872;BME280;43914;57.680;11.982;2023-04-24T07:40:12;99279.95;;;8.76;97.32
54872;BME280;43914;57.680;11.982;2023-04-24T07:42:38;99285.46;;;8.75;97.78
54872;BME280;43914;57.680;11.982;2023-04-24T07:45:04;99283.57;;;8.71;98.21
54872;BME280;43914;57.680;11.982;2023-04-24T07:47:31;99292.88;;;8.73;98.83
54872;BME280;43914;57.680;11.982;2023-04-24T07:49:56;99298.49;;;8.69;99.37
54872;BME280;43914;57.680;11.982;2023-04-24T07:52:22;99303.38;;;8.62;100.00
54872;BME280;43914;57.680;11.982;2023-04-24T07:54:47;99303.16;;;8.56;100.00
54872;BME280;43914;57.680;11.982;2023-04-24T07:57:13;99299.31;;;8.48;100.00
54872;BME280;43914;57.680;11.982;2023-04-24T07:59:39;99305.20;;;8.42;100.00
54872;BME280;43914;57.680;11.982;2023-04-24T08:02:04;99305.23;;;8.34;100.00
54872;BME280;43914;57.680;11.982;2023-04-24T08:04:31;99307.86;;;8.27;100.00
54872;BME280;43914;57.680;11.982;2023-04-24T08:06:57;99306.83;;;8.21;100.00
54872;BME280;43914;57.680;11.982;2023-04-24T08:09:23;99303.36;;;8.17;100.00
54872;BME280;43914;57.680;11.982;2023-04-24T08:11:48;99300.81;;;8.17;100.00
54872;BME280;43914;57.680;11.982;2023-04-24T08:14:14;99301.63;;;8.16;100.00
54872;BME280;43914;57.680;11.982;2023-04-24T08:16:40;99297.31;;;8.15;100.00
54872;BME280;43914;57.680;11.982;2023-04-24T08:19:06;99290.97;;;8.14;100.00
54872;BME280;43914;57.680;11.982;2023-04-24T08:21:32;99287.03;;;8.10;100.00
54872;BME280;43914;57.680;11.982;2023-04-24T08:23:57;99281.65;;;8.07;100.00
54872;BME280;43914;57.680;11.982;2023-04-24T08:26:23;99276.26;;;8.04;100.00
54872;BME280;43914;57.680;11.982;2023-04-24T08:28:48;99277.74;;;8.01;100.00
54872;BME280;43914;57.680;11.982;2023-04-24T08:31:14;99271.08;;;7.99;100.00
54872;BME280;43914;57.680;11.982;2023-04-24T08:33:41;99266.28;;;7.93;100.00
54872;BME280;43914;57.680;11.982;2023-04-24T08:36:07;99267.52;;;7.92;100.00
54872;BME280;43914;57.680;11.982;2023-04-24T08:38:33;99263.11;;;7.91;100.00
54872;BME280;43914;57.680;11.982;2023-04-24T08:41:00;99257.84;;;7.90;100.00
54872;BME280;43914;57.680;11.982;2023-04-24T08:43:27;99257.97;;;7.89;100.00
54872;BME280;43914;57.680;11.982;2023-04-24T08:45:55;99255.70;;;7.88;100.00
54872;BME280;43914;57.680;11.982;2023-04-24T08:48:22;99255.36;;;7.86;100.00
54872;BME280;43914;57.680;11.982;2023-04-24T08:50:50;99249.64;;;7.87;100.00
54872;BME280;43914;57.680;11.982;2023-04-24T08:53:16;99251.42;;;7.89;100.00
54872;BME280;43914;57.680;11.982;2023-04-24T08:55:43;99248.61;;;7.88;100.00
54872;BME280;43914;57.680;11.982;2023-04-24T08:58:11;99250.05;;;7.87;100.00
54872;BME280;43914;57.680;11.982;2023-04-24T09:00:39;99245.27;;;7.86;100.00
54872;BME280;43914;57.680;11.982;2023-04-24T09:03:05;99242.39;;;7.81;100.00
54872;BME280;43914;57.680;11.982;2023-04-24T09:05:32;99243.09;;;7.76;100.00
54872;BME280;43914;57.680;11.982;2023-04-24T09:07:59;99237.41;;;7.70;100.00
54872;BME280;43914;57.680;11.982;2023-04-24T09:10:27;99235.32;;;7.64;100.00
54872;BME280;43914;57.680;11.982;2023-04-24T09:12:56;99231.90;;;7.58;100.00
54872;BME280;43914;57.680;11.982;2023-04-24T09:15:24;99232.48;;;7.57;100.00
54872;BME280;43914;57.680;11.982;2023-04-24T09:17:50;99224.66;;;7.57;100.00
54872;BME280;43914;57.680;11.982;2023-04-24T09:20:15;99221.30;;;7.58;100.00
54872;BME280;43914;57.680;11.982;2023-04-24T09:22:42;99220.13;;;7.57;100.00
54872;BME280;43914;57.680;11.982;2023-04-24T09:25:09;99216.44;;;7.57;100.00
54872;BME280;43914;57.680;11.982;2023-04-24T09:27:41;99213.55;;;7.58;100.00
54872;BME280;43914;57.680;11.982;2023-04-24T09:30:07;99211.34;;;7.63;100.00
54872;BME280;43914;57.680;11.982;2023-04-24T09:32:33;99211.70;;;7.71;100.00
54872;BME280;43914;57.680;11.982;2023-04-24T09:35:07;99209.05;;;7.78;100.00
54872;BME280;43914;57.680;11.982;2023-04-24T09:37:42;99211.01;;;7.86;100.00
54872;BME280;43914;57.680;11.982;2023-04-24T09:42:37;99214.39;;;7.97;100.00
54872;BME280;43914;57.680;11.982;2023-04-24T09:45:04;99217.31;;;8.02;100.00
54872;BME280;43914;57.680;11.982;2023-04-24T09:47:39;99217.48;;;8.08;100.00
54872;BME280;43914;57.680;11.982;2023-04-24T09:50:14;99209.65;;;8.22;100.00
54872;BME280;43914;57.680;11.982;2023-04-24T09:53:03;99207.41;;;8.39;100.00
54872;BME280;43914;57.680;11.982;2023-04-24T09:55:30;99204.00;;;8.54;100.00
54872;BME280;43914;57.680;11.982;2023-04-24T09:57:58;99198.75;;;8.65;100.00
54872;BME280;43914;57.680;11.982;2023-04-24T10:00:30;99193.62;;;8.72;100.00
54872;BME280;43914;57.680;11.982;2023-04-24T10:03:01;99188.04;;;8.77;100.00
54872;BME280;43914;57.680;11.982;2023-04-24T10:05:31;99183.76;;;8.77;100.00
54872;BME280;43914;57.680;11.982;2023-04-24T10:08:05;99181.05;;;8.77;100.00
54872;BME280;43914;57.680;11.982;2023-04-24T10:10:33;99178.54;;;8.82;100.00
54872;BME280;43914;57.680;11.982;2023-04-24T10:12:59;99173.90;;;8.86;100.00
54872;BME280;43914;57.680;11.982;2023-04-24T10:15:26;99172.14;;;8.86;100.00
54872;BME280;43914;57.680;11.982;2023-04-24T10:17:52;99170.73;;;8.86;100.00
54872;BME280;43914;57.680;11.982;2023-04-24T10:20:23;99165.33;;;8.87;100.00
54872;BME280;43914;57.680;11.982;2023-04-24T10:22:50;99163.48;;;8.89;100.00
54872;BME280;43914;57.680;11.982;2023-04-24T10:25:19;99157.16;;;8.91;100.00
54872;BME280;43914;57.680;11.982;2023-04-24T10:27:45;99142.52;;;8.96;100.00
54872;BME280;43914;57.680;11.982;2023-04-24T10:30:12;99138.00;;;9.07;100.00
54872;BME280;43914;57.680;11.982;2023-04-24T10:32:37;99131.71;;;9.17;100.00
54872;BME280;43914;57.680;11.982;2023-04-24T10:35:03;99129.21;;;9.28;100.00
54872;BME280;43914;57.680;11.982;2023-04-24T10:37:36;99128.81;;;9.41;100.00
54872;BME280;43914;57.680;11.982;2023-04-24T10:40:02;99122.94;;;9.61;100.00
54872;BME280;43914;57.680;11.982;2023-04-24T10:42:28;99122.34;;;9.87;100.00
54872;BME280;43914;57.680;11.982;2023-04-24T10:44:53;99119.83;;;10.11;100.00
54872;BME280;43914;57.680;11.982;2023-04-24T10:47:20;99123.06;;;10.30;100.00
54872;BME280;43914;57.680;11.982;2023-04-24T10:49:46;99117.47;;;10.45;100.00
54872;BME280;43914;57.680;11.982;2023-04-24T10:52:11;99116.23;;;10.67;100.00
54872;BME280;43914;57.680;11.982;2023-04-24T11:00:12;99105.75;;;11.19;97.54
54872;BME280;43914;57.680;11.982;2023-04-24T11:02:39;99097.35;;;11.25;97.33
54872;BME280;43914;57.680;11.982;2023-04-24T11:05:06;99090.45;;;11.31;97.41
54872;BME280;43914;57.680;11.982;2023-04-24T11:14:00;99090.56;;;11.58;94.18
54872;BME280;43914;57.680;11.982;2023-04-24T11:26:53;99076.52;;;12.07;90.54
54872;BME280;43914;57.680;11.982;2023-04-24T11:29:20;99071.75;;;12.09;90.38
54872;BME280;43914;57.680;11.982;2023-04-24T11:31:47;99069.52;;;12.24;90.89
54872;BME280;43914;57.680;11.982;2023-04-24T11:34:17;99073.89;;;12.40;90.09
54872;BME280;43914;57.680;11.982;2023-04-24T11:36:45;99064.21;;;12.46;89.76
54872;BME280;43914;57.680;11.982;2023-04-24T11:39:11;99069.23;;;12.41;88.44
54872;BME280;43914;57.680;11.982;2023-04-24T11:41:38;99068.74;;;12.41;88.61
54872;BME280;43914;57.680;11.982;2023-04-24T11:44:08;99066.60;;;12.42;88.24
54872;BME280;43914;57.680;11.982;2023-04-24T11:46:34;99066.60;;;12.47;87.68
54872;BME280;43914;57.680;11.982;2023-04-24T11:49:00;99065.79;;;12.50;86.99
54872;BME280;43914;57.680;11.982;2023-04-24T11:51:26;99068.56;;;12.54;87.01
54872;BME280;43914;57.680;11.982;2023-04-24T11:53:56;99069.02;;;12.64;87.11
54872;BME280;43914;57.680;11.982;2023-04-24T11:56:22;99064.52;;;12.76;86.72
54872;BME280;43914;57.680;11.982;2023-04-24T11:58:48;99057.16;;;12.82;85.81
54872;BME280;43914;57.680;11.982;2023-04-24T12:01:14;99057.12;;;12.90;84.93
54872;BME280;43914;57.680;11.982;2023-04-24T12:03:40;99053.99;;;12.95;85.98
54872;BME280;43914;57.680;11.982;2023-04-24T12:06:10;99050.89;;;13.03;84.90
54872;BME280;43914;57.680;11.982;2023-04-24T12:08:37;99052.52;;;13.04;83.81
54872;BME280;43914;57.680;11.982;2023-04-24T12:11:04;99054.76;;;13.08;83.91
54872;BME280;43914;57.680;11.982;2023-04-24T12:13:30;99050.15;;;13.10;83.61
54872;BME280;43914;57.680;11.982;2023-04-24T12:15:57;99052.39;;;13.14;83.79
54872;BME280;43914;57.680;11.982;2023-04-24T12:18:23;99055.30;;;13.15;82.68
54872;BME280;43914;57.680;11.982;2023-04-24T12:20:49;99044.95;;;13.12;82.74
54872;BME280;43914;57.680;11.982;2023-04-24T12:23:15;99046.27;;;13.14;82.95
54872;BME280;43914;57.680;11.982;2023-04-24T12:25:41;99041.21;;;13.11;81.65
54872;BME280;43914;57.680;11.982;2023-04-24T12:30:41;99042.20;;;12.90;80.34
54872;BME280;43914;57.680;11.982;2023-04-24T12:33:06;99042.63;;;12.78;80.83
54872;BME280;43914;57.680;11.982;2023-04-24T12:35:33;99045.38;;;12.64;79.91
54872;BME280;43914;57.680;11.982;2023-04-24T12:38:11;99049.44;;;12.57;81.50
54872;BME280;43914;57.680;11.982;2023-04-24T12:40:38;99044.27;;;12.51;81.99
54872;BME280;43914;57.680;11.982;2023-04-24T12:43:16;99045.95;;;12.47;82.44
54872;BME280;43914;57.680;11.982;2023-04-24T12:45:42;99044.65;;;12.43;82.51
54872;BME280;43914;57.680;11.982;2023-04-24T12:48:08;99038.00;;;12.40;82.80
54872;BME280;43914;57.680;11.982;2023-04-24T12:50:33;99031.77;;;12.32;81.83
54872;BME280;43914;57.680;11.982;2023-04-24T12:52:59;99032.34;;;12.26;82.33
54872;BME280;43914;57.680;11.982;2023-04-24T12:55:25;99033.28;;;12.21;82.94
54872;BME280;43914;57.680;11.982;2023-04-24T12:57:50;99028.41;;;12.16;82.94
54872;BME280;43914;57.680;11.982;2023-04-24T13:00:17;99031.19;;;12.09;83.09
54872;BME280;43914;57.680;11.982;2023-04-24T13:02:43;99031.80;;;12.05;83.25
54872;BME280;43914;57.680;11.982;2023-04-24T13:05:08;99038.73;;;11.98;83.15
54872;BME280;43914;57.680;11.982;2023-04-24T13:07:34;99036.63;;;11.91;83.54
54872;BME280;43914;57.680;11.982;2023-04-24T13:10:00;99033.32;;;11.84;84.01
54872;BME280;43914;57.680;11.982;2023-04-24T13:12:25;99032.73;;;11.80;84.58